Time;durP1;ratioP1;P1;durP2;ratioP2;P2;SDS_P1;SDS_P2;PMS_P1;PMS_P2;Temp;Humidity;BMP_temperature;BMP_pressure;BME280_temperature;BME280_humidity;BME280_pressure;Samples;Min_cycle;Max_cycle;Signal;HPM_P1;HPM_P2
2022/11/17 00:00:31;;;;;;;;;;;21.60;43.20;;;;;;460767;259;1435;-50
2022/11/17 00:02:32;;;;;;;;;;;21.60;43.20;;;;;;458618;259;1520;-50
2022/11/17 00:04:33;;;;;;;;;;;21.60;43.20;;;;;;477579;242;1513;-51
2022/11/17 00:06:35;;;;;;;;;;;21.60;43.10;;;;;;485166;246;1672;-50
2022/11/17 00:08:36;;;;;;;;;;;21.60;43.20;;;;;;485110;246;1738;-51
2022/11/17 00:10:37;;;;;;;;;;;21.60;43.20;;;;;;485520;246;2203;-51
2022/11/17 00:14:58;;;;;;;;;;;21.50;43.20;;;;;;485111;246;1364;-50
2022/11/17 00:16:59;;;;;;;;;;;21.50;43.20;;;;;;485072;246;1240;-49
2022/11/17 00:21:20;;;;;;;;;;;21.50;43.30;;;;;;485156;246;1310;-50
2022/11/17 00:23:21;;;;;;;;;;;21.50;43.20;;;;;;485466;246;1799;-50
2022/11/17 00:25:22;;;;;;;;;;;21.50;43.30;;;;;;485299;246;1216;-50
2022/11/17 00:27:24;;;;;;;;;;;21.50;43.30;;;;;;485589;246;1410;-50
2022/11/17 00:29:25;;;;;;;;;;;21.50;43.30;;;;;;485308;246;2183;-51
2022/11/17 00:34:04;;;;;;;;;;;21.50;43.30;;;;;;485623;246;1275;-50
2022/11/17 00:36:05;;;;;;;;;;;21.50;43.30;;;;;;485536;246;1306;-50
2022/11/17 00:38:16;;;;;;;;;;;21.50;43.20;;;;;;485618;246;1233;-50
2022/11/17 00:40:17;;;;;;;;;;;21.50;43.20;;;;;;485169;246;1193;-50
2022/11/17 00:42:19;;;;;;;;;;;21.50;43.20;;;;;;485420;246;1194;-50
2022/11/17 00:44:20;;;;;;;;;;;21.50;43.20;;;;;;485418;246;1270;-50
2022/11/17 00:46:21;;;;;;;;;;;21.50;43.20;;;;;;485438;246;1204;-50
2022/11/17 00:48:23;;;;;;;;;;;21.50;43.20;;;;;;485422;246;1272;-50
2022/11/17 00:50:24;;;;;;;;;;;21.60;43.20;;;;;;485615;246;2191;-50
2022/11/17 00:52:25;;;;;;;;;;;21.60;43.20;;;;;;485633;246;1226;-50
2022/11/17 00:54:27;;;;;;;;;;;21.60;43.10;;;;;;485578;246;1225;-50
2022/11/17 00:56:28;;;;;;;;;;;21.60;43.10;;;;;;485574;246;1199;-50
2022/11/17 00:58:29;;;;;;;;;;;21.60;43.00;;;;;;485554;246;1248;-50
2022/11/17 01:00:30;;;;;;;;;;;21.60;43.00;;;;;;485193;246;1221;-50
2022/11/17 01:02:32;;;;;;;;;;;21.60;43.00;;;;;;485631;246;1222;-50
2022/11/17 01:04:33;;;;;;;;;;;21.60;43.00;;;;;;485566;246;1336;-50
2022/11/17 01:06:35;;;;;;;;;;;21.60;42.90;;;;;;485158;246;1200;-50
2022/11/17 01:08:36;;;;;;;;;;;21.70;42.90;;;;;;485660;246;1212;-50
2022/11/17 01:10:37;;;;;;;;;;;21.70;42.90;;;;;;485328;246;2164;-50
2022/11/17 01:12:38;;;;;;;;;;;21.60;42.80;;;;;;485587;246;1207;-50
2022/11/17 01:14:40;;;;;;;;;;;21.70;42.90;;;;;;485475;246;1422;-50
2022/11/17 01:16:41;;;;;;;;;;;21.70;42.90;;;;;;485669;246;1238;-50
2022/11/17 01:18:42;;;;;;;;;;;21.80;42.70;;;;;;485205;246;1126;-50
2022/11/17 01:20:44;;;;;;;;;;;21.90;42.40;;;;;;485642;246;1041;-50
2022/11/17 01:22:45;;;;;;;;;;;22.00;42.20;;;;;;485474;246;1386;-50
2022/11/17 01:24:46;;;;;;;;;;;22.00;42.20;;;;;;485208;246;1209;-50
2022/11/17 01:26:50;;;;;;;;;;;22.00;42.30;;;;;;485174;246;1367;-50
2022/11/17 01:28:50;;;;;;;;;;;21.90;42.40;;;;;;485050;246;1948;-50
2022/11/17 01:30:51;;;;;;;;;;;21.80;42.50;;;;;;485208;246;2231;-50
2022/11/17 01:32:52;;;;;;;;;;;21.80;42.70;;;;;;485483;246;1451;-50
2022/11/17 01:34:53;;;;;;;;;;;21.70;42.70;;;;;;485251;246;1794;-50
2022/11/17 01:39:14;;;;;;;;;;;21.60;42.90;;;;;;485580;246;1276;-50
2022/11/17 01:41:15;;;;;;;;;;;21.60;43.00;;;;;;485503;246;1251;-50
2022/11/17 01:43:17;;;;;;;;;;;21.60;43.10;;;;;;485264;246;1395;-50
2022/11/17 01:45:18;;;;;;;;;;;21.50;43.00;;;;;;485201;246;1382;-50
2022/11/17 01:47:19;;;;;;;;;;;21.50;43.10;;;;;;485650;246;1599;-50
2022/11/17 01:49:21;;;;;;;;;;;21.50;43.10;;;;;;485196;246;1394;-50
2022/11/17 01:51:22;;;;;;;;;;;21.50;43.10;;;;;;485517;246;2210;-50
2022/11/17 01:53:25;;;;;;;;;;;21.50;43.10;;;;;;485385;246;1633;-50
2022/11/17 01:55:25;;;;;;;;;;;21.50;43.10;;;;;;485562;246;2182;-50
2022/11/17 01:57:26;;;;;;;;;;;21.60;43.10;;;;;;485259;246;1256;-50
2022/11/17 01:59:27;;;;;;;;;;;21.60;43.00;;;;;;485647;246;1613;-50
2022/11/17 02:01:29;;;;;;;;;;;21.50;43.00;;;;;;485213;246;1256;-50
2022/11/17 02:03:31;;;;;;;;;;;21.50;43.00;;;;;;485646;246;1748;-50
2022/11/17 02:05:31;;;;;;;;;;;21.60;43.00;;;;;;485139;246;2366;-50
2022/11/17 02:07:33;;;;;;;;;;;21.60;43.00;;;;;;485216;246;1215;-50
2022/11/17 02:09:34;;;;;;;;;;;21.60;43.00;;;;;;485342;246;1286;-50
2022/11/17 02:11:35;;;;;;;;;;;21.60;42.90;;;;;;485352;246;2151;-50
2022/11/17 02:13:36;;;;;;;;;;;21.60;42.90;;;;;;485135;246;1300;-50
2022/11/17 02:15:38;;;;;;;;;;;21.60;42.90;;;;;;485435;246;1354;-50
2022/11/17 02:17:39;;;;;;;;;;;21.60;42.90;;;;;;485633;246;1216;-50
2022/11/17 02:19:40;;;;;;;;;;;21.60;42.90;;;;;;485627;246;1202;-50
2022/11/17 02:21:42;;;;;;;;;;;21.60;42.90;;;;;;485509;246;1206;-51
2022/11/17 02:23:43;;;;;;;;;;;21.70;42.90;;;;;;485214;246;1108;-50
2022/11/17 02:25:44;;;;;;;;;;;21.70;42.80;;;;;;485679;246;1112;-50
2022/11/17 02:27:46;;;;;;;;;;;21.60;42.80;;;;;;485641;246;1185;-50
2022/11/17 02:29:47;;;;;;;;;;;21.70;42.90;;;;;;485646;246;1229;-50
2022/11/17 02:31:48;;;;;;;;;;;21.60;42.80;;;;;;485254;246;2164;-51
2022/11/17 02:33:50;;;;;;;;;;;21.70;42.90;;;;;;485221;246;1115;-50
2022/11/17 02:35:51;;;;;;;;;;;21.60;42.80;;;;;;485674;246;1120;-50
2022/11/17 02:37:53;;;;;;;;;;;21.60;42.80;;;;;;485215;246;1270;-50
2022/11/17 02:39:54;;;;;;;;;;;21.60;42.90;;;;;;485620;246;2092;-50
2022/11/17 02:41:55;;;;;;;;;;;21.60;42.90;;;;;;485205;246;1196;-50
2022/11/17 02:44:06;;;;;;;;;;;21.60;42.90;;;;;;485582;246;1345;-50
2022/11/17 02:46:07;;;;;;;;;;;21.60;42.90;;;;;;485432;246;1548;-50
2022/11/17 02:48:08;;;;;;;;;;;21.60;42.90;;;;;;485136;246;1316;-50
2022/11/17 02:50:10;;;;;;;;;;;21.60;42.90;;;;;;485584;246;2162;-50
2022/11/17 02:52:11;;;;;;;;;;;21.60;43.00;;;;;;485135;246;1260;-50
2022/11/17 02:54:13;;;;;;;;;;;21.60;43.00;;;;;;485331;246;1211;-50
2022/11/17 02:56:14;;;;;;;;;;;21.50;43.00;;;;;;485478;246;1182;-50
2022/11/17 02:58:15;;;;;;;;;;;21.60;43.00;;;;;;485112;246;1324;-49
2022/11/17 03:00:17;;;;;;;;;;;21.50;43.00;;;;;;485557;246;1262;-51
2022/11/17 03:02:18;;;;;;;;;;;21.50;43.00;;;;;;485187;246;1440;-51
2022/11/17 03:04:19;;;;;;;;;;;21.50;43.10;;;;;;485146;246;1228;-50
2022/11/17 03:06:21;;;;;;;;;;;21.50;43.10;;;;;;485624;246;1362;-50
2022/11/17 03:08:22;;;;;;;;;;;21.50;43.10;;;;;;485143;246;1213;-50
2022/11/17 03:10:23;;;;;;;;;;;21.50;43.10;;;;;;485162;246;2148;-50
2022/11/17 03:12:25;;;;;;;;;;;21.50;43.10;;;;;;485150;246;1314;-51
2022/11/17 03:14:26;;;;;;;;;;;21.50;43.00;;;;;;485116;246;1254;-50
2022/11/17 03:16:27;;;;;;;;;;;21.50;43.00;;;;;;485144;246;1299;-50
2022/11/17 03:18:28;;;;;;;;;;;21.50;43.10;;;;;;485618;246;1209;-49
2022/11/17 03:20:30;;;;;;;;;;;21.50;43.10;;;;;;485181;246;1252;-50
2022/11/17 03:22:31;;;;;;;;;;;21.50;43.00;;;;;;485595;246;1219;-50
2022/11/17 03:24:33;;;;;;;;;;;21.50;43.10;;;;;;485439;246;1205;-50
2022/11/17 03:26:34;;;;;;;;;;;21.50;43.00;;;;;;485225;246;1208;-50
2022/11/17 03:28:35;;;;;;;;;;;21.50;43.00;;;;;;485175;246;1115;-50
2022/11/17 03:30:37;;;;;;;;;;;21.50;42.90;;;;;;485657;246;2163;-50
2022/11/17 03:32:38;;;;;;;;;;;21.50;42.90;;;;;;485186;246;1158;-50
2022/11/17 03:34:39;;;;;;;;;;;21.50;42.90;;;;;;485194;246;1154;-50
2022/11/17 03:36:41;;;;;;;;;;;21.50;42.90;;;;;;485272;246;1264;-50
2022/11/17 03:38:42;;;;;;;;;;;21.50;42.90;;;;;;485570;246;1203;-50
2022/11/17 03:40:43;;;;;;;;;;;21.50;42.90;;;;;;485644;246;1212;-50
2022/11/17 03:42:45;;;;;;;;;;;21.50;42.90;;;;;;485192;246;1225;-50
2022/11/17 03:44:46;;;;;;;;;;;21.60;42.90;;;;;;485580;246;1356;-50
2022/11/17 03:46:47;;;;;;;;;;;21.50;42.90;;;;;;485451;246;1402;-50
2022/11/17 03:48:49;;;;;;;;;;;21.50;42.90;;;;;;485187;246;1257;-50
2022/11/17 03:50:50;;;;;;;;;;;21.50;42.90;;;;;;485580;246;2195;-50
2022/11/17 03:52:51;;;;;;;;;;;21.50;42.90;;;;;;485252;246;1200;-50
2022/11/17 03:54:53;;;;;;;;;;;21.50;42.90;;;;;;485115;246;1280;-50
2022/11/17 03:56:54;;;;;;;;;;;21.60;42.90;;;;;;485450;246;1224;-49
2022/11/17 03:58:55;;;;;;;;;;;21.60;42.90;;;;;;485220;246;1442;-50
2022/11/17 04:00:57;;;;;;;;;;;21.60;42.90;;;;;;485126;246;1306;-50
2022/11/17 04:02:58;;;;;;;;;;;21.60;42.90;;;;;;485260;246;1272;-50
2022/11/17 04:05:05;;;;;;;;;;;21.60;42.80;;;;;;485188;246;1238;-50
2022/11/17 04:07:06;;;;;;;;;;;21.60;42.80;;;;;;485634;246;1185;-50
2022/11/17 04:09:08;;;;;;;;;;;21.60;42.80;;;;;;485420;246;1265;-50
2022/11/17 04:15:57;;;;;;;;;;;21.60;42.80;;;;;;485582;246;1225;-50
2022/11/17 04:17:58;;;;;;;;;;;21.60;42.80;;;;;;485224;246;1927;-50
2022/11/17 04:19:59;;;;;;;;;;;21.60;42.80;;;;;;485147;246;1272;-50
2022/11/17 04:22:01;;;;;;;;;;;21.60;42.80;;;;;;485639;246;1172;-52
2022/11/17 04:24:02;;;;;;;;;;;21.60;42.80;;;;;;485197;246;1275;-51
2022/11/17 04:28:38;;;;;;;;;;;21.60;42.80;;;;;;485594;246;1237;-50
2022/11/17 04:30:40;;;;;;;;;;;21.60;42.80;;;;;;485625;246;2156;-50
2022/11/17 04:32:41;;;;;;;;;;;21.60;42.80;;;;;;485385;246;1096;-50
2022/11/17 04:34:42;;;;;;;;;;;21.60;42.80;;;;;;485650;246;1204;-51
2022/11/17 04:36:43;;;;;;;;;;;21.60;42.80;;;;;;485456;246;1234;-50
2022/11/17 04:38:45;;;;;;;;;;;21.60;42.80;;;;;;485455;246;1185;-50
2022/11/17 04:43:07;;;;;;;;;;;21.50;42.80;;;;;;485125;246;1507;-50
2022/11/17 04:45:08;;;;;;;;;;;21.50;42.90;;;;;;485543;246;1195;-50
2022/11/17 04:47:09;;;;;;;;;;;21.50;42.90;;;;;;485166;246;1217;-50
2022/11/17 04:49:11;;;;;;;;;;;21.50;42.90;;;;;;485625;246;1216;-50
2022/11/17 04:51:12;;;;;;;;;;;21.50;43.00;;;;;;485455;246;2167;-50
2022/11/17 04:53:13;;;;;;;;;;;21.50;43.00;;;;;;485634;246;1337;-50
2022/11/17 04:55:15;;;;;;;;;;;21.50;43.00;;;;;;485338;246;1436;-50
2022/11/17 04:57:16;;;;;;;;;;;21.50;43.00;;;;;;485293;246;1257;-50
2022/11/17 04:59:17;;;;;;;;;;;21.50;43.00;;;;;;485173;242;1181;-50
2022/11/17 05:01:19;;;;;;;;;;;21.50;43.00;;;;;;485509;246;1209;-50
2022/11/17 05:03:20;;;;;;;;;;;21.50;43.00;;;;;;485101;246;1933;-50
2022/11/17 05:05:21;;;;;;;;;;;21.50;43.00;;;;;;485238;246;1305;-51
2022/11/17 05:07:23;;;;;;;;;;;21.50;43.00;;;;;;485669;246;1151;-50
2022/11/17 05:09:24;;;;;;;;;;;21.50;43.00;;;;;;485657;246;1120;-50
2022/11/17 05:13:44;;;;;;;;;;;21.50;43.00;;;;;;485160;246;1236;-49
2022/11/17 05:18:05;;;;;;;;;;;21.50;43.00;;;;;;485310;246;1247;-51
2022/11/17 05:20:06;;;;;;;;;;;21.50;43.00;;;;;;485287;246;1470;-49
2022/11/17 05:24:28;;;;;;;;;;;21.50;42.90;;;;;;485034;246;1158;-50
2022/11/17 05:26:30;;;;;;;;;;;21.50;42.90;;;;;;485609;246;1208;-50
2022/11/17 05:28:31;;;;;;;;;;;21.50;42.90;;;;;;485223;246;1226;-50
2022/11/17 05:30:32;;;;;;;;;;;21.50;42.90;;;;;;485173;246;1229;-50
2022/11/17 05:32:34;;;;;;;;;;;21.50;42.90;;;;;;485603;246;2154;-50
2022/11/17 05:34:35;;;;;;;;;;;21.50;43.00;;;;;;485150;246;1334;-51
2022/11/17 05:36:36;;;;;;;;;;;21.50;42.90;;;;;;485446;246;1119;-50
2022/11/17 05:38:38;;;;;;;;;;;21.50;42.90;;;;;;485536;246;1127;-51
2022/11/17 05:40:39;;;;;;;;;;;21.50;42.90;;;;;;485578;246;1087;-50
2022/11/17 05:42:40;;;;;;;;;;;21.60;42.90;;;;;;485162;246;1335;-50
2022/11/17 05:44:42;;;;;;;;;;;21.60;42.80;;;;;;485527;246;1277;-50
2022/11/17 05:46:43;;;;;;;;;;;21.60;42.90;;;;;;485560;246;1302;-50
2022/11/17 05:48:44;;;;;;;;;;;21.60;42.80;;;;;;485310;246;1329;-50
2022/11/17 05:50:46;;;;;;;;;;;21.60;42.80;;;;;;485381;246;1197;-50
2022/11/17 05:52:47;;;;;;;;;;;21.60;42.80;;;;;;485155;246;2159;-51
2022/11/17 05:54:48;;;;;;;;;;;21.60;42.80;;;;;;485605;246;1350;-51
2022/11/17 05:56:49;;;;;;;;;;;21.60;42.80;;;;;;485182;246;1175;-50
2022/11/17 05:58:51;;;;;;;;;;;21.60;42.80;;;;;;485171;246;1077;-50
2022/11/17 06:00:52;;;;;;;;;;;21.60;42.80;;;;;;485144;246;1127;-50
2022/11/17 06:02:53;;;;;;;;;;;21.60;42.80;;;;;;485518;246;1242;-50
2022/11/17 06:04:55;;;;;;;;;;;21.60;42.80;;;;;;485099;246;1259;-50
2022/11/17 06:06:58;;;;;;;;;;;21.60;42.80;;;;;;485436;246;1519;-50
2022/11/17 06:08:59;;;;;;;;;;;21.60;42.80;;;;;;485279;246;1299;-50
2022/11/17 06:11:00;;;;;;;;;;;21.60;42.80;;;;;;485061;246;1259;-50
2022/11/17 06:13:02;;;;;;;;;;;21.70;42.70;;;;;;485139;246;2202;-50
2022/11/17 06:15:03;;;;;;;;;;;21.80;42.50;;;;;;485321;246;1678;-49
2022/11/17 06:17:04;;;;;;;;;;;22.00;42.20;;;;;;485152;246;1258;-51
2022/11/17 06:19:05;;;;;;;;;;;22.00;41.90;;;;;;485330;246;1263;-50
2022/11/17 06:21:07;;;;;;;;;;;22.00;41.80;;;;;;485465;246;1238;-50
2022/11/17 06:23:08;;;;;;;;;;;22.00;42.00;;;;;;485076;246;1272;-50
2022/11/17 06:25:09;;;;;;;;;;;21.90;42.10;;;;;;485182;246;1245;-50
2022/11/17 06:27:11;;;;;;;;;;;21.90;42.20;;;;;;485138;246;1278;-50
2022/11/17 06:29:12;;;;;;;;;;;21.80;42.30;;;;;;485105;246;1473;-50
2022/11/17 06:31:13;;;;;;;;;;;21.80;42.40;;;;;;485000;246;1239;-50
2022/11/17 06:33:15;;;;;;;;;;;21.80;42.40;;;;;;485138;246;2186;-50
2022/11/17 06:35:16;;;;;;;;;;;21.80;42.40;;;;;;485236;242;1186;-50
2022/11/17 06:37:17;;;;;;;;;;;21.80;42.50;;;;;;485130;246;1233;-50
2022/11/17 06:39:19;;;;;;;;;;;21.70;42.50;;;;;;485570;246;1210;-51
2022/11/17 06:41:20;;;;;;;;;;;21.70;42.50;;;;;;485160;246;1313;-50
2022/11/17 06:43:21;;;;;;;;;;;21.70;42.50;;;;;;485069;246;1775;-50
2022/11/17 06:45:23;;;;;;;;;;;21.70;42.50;;;;;;485005;246;1240;-50
2022/11/17 06:47:24;;;;;;;;;;;21.70;42.60;;;;;;485534;246;1209;-51
2022/11/17 06:49:25;;;;;;;;;;;21.70;42.60;;;;;;485422;246;1192;-50
2022/11/17 06:51:27;;;;;;;;;;;21.70;42.60;;;;;;485208;246;2160;-50
2022/11/17 06:53:28;;;;;;;;;;;21.70;42.60;;;;;;485154;246;1282;-50
2022/11/17 06:55:29;;;;;;;;;;;21.70;42.60;;;;;;485529;246;1312;-50
2022/11/17 06:57:31;;;;;;;;;;;21.60;42.70;;;;;;485041;246;1662;-50
2022/11/17 06:59:32;;;;;;;;;;;21.60;42.70;;;;;;485038;246;1114;-49
2022/11/17 07:01:33;;;;;;;;;;;21.60;42.80;;;;;;485096;246;1651;-50
2022/11/17 07:03:35;;;;;;;;;;;21.60;42.80;;;;;;485009;246;1196;-51
2022/11/17 07:05:36;;;;;;;;;;;21.60;42.80;;;;;;484933;246;1218;-51
2022/11/17 07:07:37;;;;;;;;;;;21.60;42.80;;;;;;484803;246;1696;-50
2022/11/17 07:09:39;;;;;;;;;;;21.50;42.90;;;;;;485123;246;1266;-50
2022/11/17 07:11:40;;;;;;;;;;;21.60;42.90;;;;;;484913;246;2168;-50
2022/11/17 07:13:41;;;;;;;;;;;21.50;42.80;;;;;;485121;246;1229;-50
2022/11/17 07:15:43;;;;;;;;;;;21.50;42.80;;;;;;484911;246;1237;-50
2022/11/17 07:17:44;;;;;;;;;;;21.60;42.80;;;;;;485283;246;1216;-50
2022/11/17 07:19:45;;;;;;;;;;;21.60;42.70;;;;;;484694;246;1427;-50
2022/11/17 07:21:47;;;;;;;;;;;21.60;42.70;;;;;;484902;246;1265;-50
2022/11/17 07:23:48;;;;;;;;;;;21.60;42.70;;;;;;485052;246;1279;-50
2022/11/17 07:25:49;;;;;;;;;;;21.60;42.70;;;;;;484975;246;1231;-50
2022/11/17 07:27:51;;;;;;;;;;;21.60;42.60;;;;;;485118;246;1213;-50
2022/11/17 07:29:52;;;;;;;;;;;21.60;42.60;;;;;;485259;246;1269;-50
2022/11/17 07:31:54;;;;;;;;;;;21.60;42.60;;;;;;484958;246;2204;-50
2022/11/17 07:33:55;;;;;;;;;;;21.60;42.60;;;;;;485014;246;1266;-49
2022/11/17 07:35:56;;;;;;;;;;;21.60;42.70;;;;;;484680;246;1203;-51
2022/11/17 07:37:58;;;;;;;;;;;21.60;42.60;;;;;;485089;246;1213;-50
2022/11/17 07:40:00;;;;;;;;;;;21.60;42.60;;;;;;484995;246;1183;-50
2022/11/17 07:42:01;;;;;;;;;;;21.60;42.70;;;;;;485308;246;1236;-50
2022/11/17 07:44:02;;;;;;;;;;;21.60;42.60;;;;;;484142;246;1486;-50
2022/11/17 07:46:03;;;;;;;;;;;21.60;42.60;;;;;;484372;246;1276;-50
2022/11/17 07:48:05;;;;;;;;;;;21.60;42.60;;;;;;484459;246;1304;-49
2022/11/17 07:50:06;;;;;;;;;;;21.60;42.60;;;;;;484339;246;1242;-51
2022/11/17 07:52:08;;;;;;;;;;;21.60;42.60;;;;;;484304;246;2144;-50
2022/11/17 07:54:09;;;;;;;;;;;21.60;42.60;;;;;;484571;246;1270;-50
2022/11/17 07:56:10;;;;;;;;;;;21.60;42.50;;;;;;484720;246;1225;-50
2022/11/17 07:58:12;;;;;;;;;;;21.60;42.50;;;;;;484763;246;1356;-50
2022/11/17 08:00:13;;;;;;;;;;;21.60;42.50;;;;;;484855;246;1239;-51
2022/11/17 08:02:14;;;;;;;;;;;21.60;42.50;;;;;;484479;246;1265;-50
2022/11/17 08:04:16;;;;;;;;;;;21.70;42.50;;;;;;484699;246;1644;-50
2022/11/17 08:06:17;;;;;;;;;;;21.60;42.50;;;;;;484706;246;1283;-50
2022/11/17 08:08:18;;;;;;;;;;;21.60;42.50;;;;;;484786;246;1279;-50
2022/11/17 08:10:20;;;;;;;;;;;21.70;42.50;;;;;;484948;246;1281;-50
2022/11/17 08:12:21;;;;;;;;;;;21.70;42.40;;;;;;485009;246;2191;-50
2022/11/17 08:14:22;;;;;;;;;;;21.70;42.40;;;;;;484657;246;1403;-50
2022/11/17 08:16:29;;;;;;;;;;;21.70;42.40;;;;;;484778;246;1274;-49
2022/11/17 08:18:26;;;;;;;;;;;21.70;42.40;;;;;;484306;246;1417;-50
2022/11/17 08:20:27;;;;;;;;;;;21.70;42.40;;;;;;484695;246;1289;-50
2022/11/17 08:22:28;;;;;;;;;;;21.70;42.40;;;;;;484506;246;1158;-50
2022/11/17 08:24:29;;;;;;;;;;;21.70;42.40;;;;;;484587;246;1299;-50
2022/11/17 08:26:31;;;;;;;;;;;21.70;42.40;;;;;;484807;246;1226;-51
2022/11/17 08:28:33;;;;;;;;;;;21.70;42.50;;;;;;484975;246;1213;-50
2022/11/17 08:30:34;;;;;;;;;;;21.70;42.40;;;;;;484793;246;1508;-50
2022/11/17 08:32:35;;;;;;;;;;;21.70;42.50;;;;;;484733;246;2156;-50
2022/11/17 08:34:37;;;;;;;;;;;21.70;42.50;;;;;;484838;246;1261;-50
2022/11/17 08:36:38;;;;;;;;;;;21.60;42.40;;;;;;484561;246;1263;-50
2022/11/17 08:38:39;;;;;;;;;;;21.70;42.40;;;;;;484641;246;2158;-50
2022/11/17 08:40:40;;;;;;;;;;;21.70;42.40;;;;;;484725;246;1304;-50
2022/11/17 08:42:42;;;;;;;;;;;21.70;42.40;;;;;;484906;246;1224;-50
2022/11/17 08:44:44;;;;;;;;;;;21.70;42.30;;;;;;484819;246;1308;-50
2022/11/17 08:46:45;;;;;;;;;;;21.70;42.40;;;;;;484825;246;1214;-51
2022/11/17 08:48:46;;;;;;;;;;;21.70;42.30;;;;;;485036;246;1295;-49
2022/11/17 08:50:48;;;;;;;;;;;21.70;42.40;;;;;;484985;246;1619;-50
2022/11/17 08:52:49;;;;;;;;;;;21.70;42.40;;;;;;484833;246;2214;-51
2022/11/17 08:54:51;;;;;;;;;;;21.70;42.40;;;;;;484985;246;1253;-50
2022/11/17 08:56:52;;;;;;;;;;;21.70;42.40;;;;;;484682;246;1671;-50
2022/11/17 08:58:53;;;;;;;;;;;21.70;42.40;;;;;;484832;246;1210;-50
2022/11/17 09:00:54;;;;;;;;;;;21.70;42.40;;;;;;484805;246;1266;-50
2022/11/17 09:02:56;;;;;;;;;;;21.70;42.40;;;;;;484867;246;1500;-50
2022/11/17 09:04:57;;;;;;;;;;;21.80;42.40;;;;;;484914;246;1548;-50
2022/11/17 09:06:58;;;;;;;;;;;21.80;42.40;;;;;;484627;246;1230;-50
2022/11/17 09:08:59;;;;;;;;;;;21.80;42.40;;;;;;485123;246;1181;-50
2022/11/17 09:11:01;;;;;;;;;;;21.70;42.40;;;;;;484413;246;1447;-50
2022/11/17 09:13:02;;;;;;;;;;;21.70;42.30;;;;;;484358;246;2176;-50
2022/11/17 09:15:03;;;;;;;;;;;21.80;42.40;;;;;;484573;246;1220;-50
2022/11/17 09:17:05;;;;;;;;;;;21.70;42.30;;;;;;484709;246;1356;-50
2022/11/17 09:19:06;;;;;;;;;;;21.80;42.40;;;;;;484696;246;1256;-50
2022/11/17 09:21:07;;;;;;;;;;;21.80;42.40;;;;;;484628;246;1136;-50
2022/11/17 09:23:09;;;;;;;;;;;21.80;42.40;;;;;;484821;246;1264;-51
2022/11/17 09:25:10;;;;;;;;;;;21.70;42.30;;;;;;484948;246;1091;-50
2022/11/17 09:27:12;;;;;;;;;;;21.70;42.40;;;;;;484659;246;1273;-50
2022/11/17 09:29:13;;;;;;;;;;;21.70;42.40;;;;;;484727;246;1956;-50
2022/11/17 09:31:14;;;;;;;;;;;21.80;42.40;;;;;;484749;246;1515;-50
2022/11/17 09:33:15;;;;;;;;;;;21.80;42.40;;;;;;484693;246;2198;-50
2022/11/17 09:35:17;;;;;;;;;;;21.80;42.30;;;;;;484784;246;1544;-50
2022/11/17 09:37:19;;;;;;;;;;;21.80;42.30;;;;;;484898;246;1235;-50
2022/11/17 09:39:20;;;;;;;;;;;21.80;42.30;;;;;;484566;246;1721;-51
2022/11/17 09:41:21;;;;;;;;;;;22.00;42.00;;;;;;484911;246;1225;-51
2022/11/17 09:43:22;;;;;;;;;;;22.10;41.70;;;;;;484854;246;1703;-50
2022/11/17 09:45:23;;;;;;;;;;;22.10;41.60;;;;;;484932;246;1329;-49
2022/11/17 09:47:25;;;;;;;;;;;22.10;41.70;;;;;;484813;246;1221;-50
2022/11/17 09:49:26;;;;;;;;;;;22.10;41.80;;;;;;484733;246;1253;-50
2022/11/17 09:51:27;;;;;;;;;;;22.00;41.90;;;;;;484773;246;1572;-50
2022/11/17 09:53:29;;;;;;;;;;;22.00;42.10;;;;;;484722;246;2171;-50
2022/11/17 09:55:30;;;;;;;;;;;22.00;42.10;;;;;;484887;246;1291;-51
2022/11/17 09:57:31;;;;;;;;;;;21.90;42.20;;;;;;484817;243;1299;-50
2022/11/17 09:59:33;;;;;;;;;;;21.90;42.20;;;;;;484591;246;1233;-50
2022/11/17 10:01:34;;;;;;;;;;;21.90;42.30;;;;;;484729;246;1224;-50
2022/11/17 10:03:35;;;;;;;;;;;21.90;42.30;;;;;;484779;246;1283;-50
2022/11/17 10:05:37;;;;;;;;;;;21.90;42.30;;;;;;484763;246;1244;-50
2022/11/17 10:07:38;;;;;;;;;;;21.80;42.30;;;;;;484484;246;1275;-50
2022/11/17 10:09:39;;;;;;;;;;;21.90;42.40;;;;;;484119;246;1287;-50
2022/11/17 10:11:41;;;;;;;;;;;21.90;42.40;;;;;;484201;246;1338;-50
2022/11/17 10:13:42;;;;;;;;;;;21.80;42.40;;;;;;484256;246;2168;-51
2022/11/17 10:15:43;;;;;;;;;;;21.80;42.40;;;;;;484575;246;1193;-50
2022/11/17 10:17:45;;;;;;;;;;;21.80;42.50;;;;;;484853;246;1370;-50
2022/11/17 10:19:46;;;;;;;;;;;21.80;42.60;;;;;;484536;246;1210;-49
2022/11/17 10:21:48;;;;;;;;;;;21.80;42.60;;;;;;484577;246;1261;-50
2022/11/17 10:23:49;;;;;;;;;;;21.80;42.60;;;;;;484506;246;1262;-50
2022/11/17 10:25:50;;;;;;;;;;;21.80;42.60;;;;;;484648;246;1208;-50
2022/11/17 10:27:52;;;;;;;;;;;21.80;42.60;;;;;;484753;246;1312;-50
2022/11/17 10:29:53;;;;;;;;;;;21.80;42.60;;;;;;484795;246;1542;-50
2022/11/17 10:31:55;;;;;;;;;;;21.80;42.70;;;;;;484963;246;1176;-50
2022/11/17 10:33:56;;;;;;;;;;;21.80;42.70;;;;;;484697;246;2155;-49
2022/11/17 10:35:57;;;;;;;;;;;21.80;42.70;;;;;;484607;246;1208;-50
2022/11/17 10:37:58;;;;;;;;;;;21.80;42.70;;;;;;484482;246;1353;-54
2022/11/17 10:40:00;;;;;;;;;;;21.80;42.70;;;;;;484584;246;1690;-50
2022/11/17 10:42:01;;;;;;;;;;;22.00;42.40;;;;;;484639;246;1230;-51
2022/11/17 10:44:03;;;;;;;;;;;22.10;42.00;;;;;;484603;246;1258;-51
2022/11/17 10:46:04;;;;;;;;;;;22.20;41.90;;;;;;484720;246;1218;-51
2022/11/17 10:48:05;;;;;;;;;;;22.10;42.00;;;;;;484709;246;1283;-51
2022/11/17 10:50:06;;;;;;;;;;;22.00;42.20;;;;;;484548;246;1248;-51
2022/11/17 10:52:08;;;;;;;;;;;22.00;42.30;;;;;;484686;246;1352;-51
2022/11/17 10:54:09;;;;;;;;;;;21.90;42.40;;;;;;484743;246;2195;-51
2022/11/17 10:56:10;;;;;;;;;;;21.90;42.50;;;;;;484750;246;1268;-51
2022/11/17 10:58:12;;;;;;;;;;;21.90;42.50;;;;;;484643;246;1269;-51
2022/11/17 11:00:13;;;;;;;;;;;21.90;42.60;;;;;;484736;246;1708;-51
2022/11/17 11:02:14;;;;;;;;;;;21.90;42.70;;;;;;484693;246;1247;-51
2022/11/17 11:04:16;;;;;;;;;;;21.90;42.70;;;;;;484663;246;1229;-51
2022/11/17 11:06:17;;;;;;;;;;;21.80;42.70;;;;;;484770;246;1315;-51
2022/11/17 11:08:19;;;;;;;;;;;21.90;42.80;;;;;;484713;246;1208;-51
2022/11/17 11:10:20;;;;;;;;;;;21.80;42.80;;;;;;484739;246;1259;-51
2022/11/17 11:12:22;;;;;;;;;;;21.80;42.80;;;;;;484815;246;1230;-51
2022/11/17 11:14:23;;;;;;;;;;;21.80;42.80;;;;;;484695;246;2211;-51
2022/11/17 11:16:24;;;;;;;;;;;21.80;42.90;;;;;;484670;246;2083;-51
2022/11/17 11:18:25;;;;;;;;;;;21.80;42.90;;;;;;484797;246;1536;-51
2022/11/17 11:20:27;;;;;;;;;;;21.80;42.90;;;;;;484473;246;1490;-51
2022/11/17 11:22:28;;;;;;;;;;;21.80;42.90;;;;;;484707;246;1271;-51
2022/11/17 11:24:29;;;;;;;;;;;21.80;43.00;;;;;;484837;246;1296;-50
2022/11/17 11:26:31;;;;;;;;;;;21.80;43.00;;;;;;484670;246;1317;-50
2022/11/17 11:28:32;;;;;;;;;;;21.80;43.00;;;;;;484836;246;1344;-50
2022/11/17 11:30:33;;;;;;;;;;;21.80;43.00;;;;;;484911;246;1236;-50
2022/11/17 11:32:35;;;;;;;;;;;21.80;42.90;;;;;;484607;246;1313;-50
2022/11/17 11:34:36;;;;;;;;;;;21.80;43.00;;;;;;484558;246;2196;-50
2022/11/17 11:36:37;;;;;;;;;;;21.80;43.10;;;;;;484597;246;1666;-50
2022/11/17 11:38:39;;;;;;;;;;;21.70;43.00;;;;;;484199;246;1249;-50
2022/11/17 11:40:40;;;;;;;;;;;21.70;43.10;;;;;;484581;246;1184;-50
2022/11/17 11:42:41;;;;;;;;;;;21.70;43.10;;;;;;484647;246;1291;-50
2022/11/17 11:44:43;;;;;;;;;;;21.80;43.10;;;;;;484561;246;1187;-50
2022/11/17 11:46:44;;;;;;;;;;;21.70;43.10;;;;;;484597;246;1511;-50
2022/11/17 11:48:45;;;;;;;;;;;21.70;43.10;;;;;;484598;246;1274;-50
2022/11/17 11:50:47;;;;;;;;;;;21.70;43.20;;;;;;484540;246;1249;-50
2022/11/17 11:52:48;;;;;;;;;;;21.70;43.10;;;;;;484794;246;1497;-50
2022/11/17 11:54:49;;;;;;;;;;;21.80;43.10;;;;;;484794;246;2172;-50
2022/11/17 11:56:51;;;;;;;;;;;22.00;42.80;;;;;;484804;246;1206;-51
2022/11/17 11:58:52;;;;;;;;;;;22.10;42.40;;;;;;484695;246;1253;-50
2022/11/17 12:00:53;;;;;;;;;;;22.10;42.30;;;;;;484902;246;1201;-50
2022/11/17 12:02:55;;;;;;;;;;;22.10;42.40;;;;;;485058;246;1205;-50
2022/11/17 12:04:56;;;;;;;;;;;22.00;42.50;;;;;;484899;246;1228;-49
2022/11/17 12:06:57;;;;;;;;;;;22.00;42.70;;;;;;484777;246;1254;-50
2022/11/17 12:08:58;;;;;;;;;;;22.00;42.70;;;;;;484883;246;1255;-50
2022/11/17 12:11:00;;;;;;;;;;;21.90;42.80;;;;;;484789;246;1261;-50
2022/11/17 12:13:01;;;;;;;;;;;21.90;42.90;;;;;;484936;246;1683;-50
2022/11/17 12:15:02;;;;;;;;;;;21.90;43.00;;;;;;484752;246;2172;-50
2022/11/17 12:17:04;;;;;;;;;;;21.80;43.00;;;;;;484760;246;1515;-50
2022/11/17 12:19:05;;;;;;;;;;;21.80;43.10;;;;;;484902;246;1219;-50
2022/11/17 12:21:06;;;;;;;;;;;21.80;43.10;;;;;;484686;246;1240;-50
2022/11/17 12:23:08;;;;;;;;;;;21.80;43.10;;;;;;484763;246;1291;-50